createdAt,value
2022-11-20T00:02:50.229Z,100229.50
2022-11-20T00:05:52.817Z,100210.72
2022-11-20T00:08:56.398Z,100211.56
2022-11-20T00:11:58.970Z,100208.97
2022-11-20T00:15:01.229Z,100193.63
2022-11-20T00:18:03.830Z,100203.88
2022-11-20T00:21:07.627Z,100214.13
2022-11-20T00:24:11.387Z,100200.47
2022-11-20T00:27:13.646Z,100206.44
2022-11-20T00:30:16.299Z,100214.94
2022-11-20T00:33:18.544Z,100228.62
2022-11-20T00:36:25.231Z,100206.41
2022-11-20T00:39:27.508Z,100212.44
2022-11-20T00:42:30.081Z,100231.19
2022-11-20T00:45:32.293Z,100250.00
2022-11-20T00:48:35.399Z,100246.56
2022-11-20T00:51:37.605Z,100234.59
2022-11-20T00:54:40.125Z,100225.22
2022-11-20T00:57:42.385Z,100219.25
2022-11-20T01:00:45.038Z,100215.84
2022-11-20T01:03:48.805Z,100213.22
2022-11-20T01:07:04.624Z,100223.50
2022-11-20T01:10:07.343Z,100219.22
2022-11-20T01:13:28.561Z,100220.97
2022-11-20T01:16:32.774Z,100222.63
2022-11-20T01:19:35.371Z,100214.13
2022-11-20T01:22:37.559Z,100220.91
2022-11-20T01:25:40.024Z,100223.50
2022-11-20T01:28:42.945Z,100232.88
2022-11-20T01:31:45.550Z,100225.22
2022-11-20T01:34:47.800Z,100219.22
2022-11-20T01:37:51.235Z,100217.50
2022-11-20T01:40:56.755Z,100203.00
2022-11-20T01:44:00.095Z,100186.78
2022-11-20T01:47:03.887Z,100185.06
2022-11-20T01:50:15.423Z,100185.09
2022-11-20T01:53:19.669Z,100184.22
2022-11-20T01:56:22.446Z,100188.50
2022-11-20T01:59:27.012Z,100178.25
2022-11-20T02:02:29.562Z,100181.66
2022-11-20T02:05:39.931Z,100183.37
2022-11-20T02:08:42.115Z,100180.81
2022-11-20T02:11:44.642Z,100171.41
2022-11-20T02:14:46.908Z,100177.41
2022-11-20T02:17:49.402Z,100179.13
2022-11-20T02:20:54.716Z,100187.66
2022-11-20T02:24:05.052Z,100185.94
2022-11-20T02:27:09.134Z,100185.09
2022-11-20T02:30:12.539Z,100187.62
2022-11-20T02:33:14.822Z,100197.03
2022-11-20T02:36:17.328Z,100185.09
2022-11-20T02:39:20.413Z,100176.53
2022-11-20T02:42:23.161Z,100164.56
2022-11-20T02:45:25.739Z,100162.03
2022-11-20T02:48:31.392Z,100163.69
2022-11-20T02:51:35.962Z,100165.41
2022-11-20T02:54:38.433Z,100159.47
2022-11-20T02:57:40.683Z,100160.31
2022-11-20T03:00:43.185Z,100159.47
2022-11-20T03:03:45.486Z,100158.59
2022-11-20T03:06:47.959Z,100150.94
2022-11-20T03:09:50.374Z,100148.38
2022-11-20T03:12:56.536Z,100150.06
2022-11-20T03:15:58.802Z,100143.22
2022-11-20T03:19:01.462Z,100146.63
2022-11-20T03:22:04.054Z,100140.66
2022-11-20T03:25:06.774Z,100153.50
2022-11-20T03:28:08.985Z,100156.91
2022-11-20T03:31:13.368Z,100170.56
2022-11-20T03:34:15.818Z,100177.38
2022-11-20T03:37:18.410Z,100183.37
2022-11-20T03:40:20.673Z,100170.56
2022-11-20T03:43:23.160Z,100164.59
2022-11-20T03:46:25.870Z,100154.31
2022-11-20T03:49:28.667Z,100144.06
2022-11-20T03:52:30.853Z,100152.59
2022-11-20T03:55:33.389Z,100156.88
2022-11-20T03:58:43.101Z,100149.22
2022-11-20T04:01:49.463Z,100142.34
2022-11-20T04:04:52.224Z,100149.19
2022-11-20T04:07:54.695Z,100162.84
2022-11-20T04:10:57.193Z,100154.31
2022-11-20T04:14:00.486Z,100146.63
2022-11-20T04:17:02.954Z,100141.50
2022-11-20T04:20:05.469Z,100140.66
2022-11-20T04:23:08.001Z,100140.62
2022-11-20T04:26:11.405Z,100130.38
2022-11-20T04:29:14.055Z,100120.94
2022-11-20T04:32:16.287Z,100121.81
2022-11-20T04:35:18.770Z,100115.88
2022-11-20T04:38:20.999Z,100115.00
2022-11-20T04:41:24.449Z,100115.84
2022-11-20T04:44:26.646Z,100121.81
2022-11-20T04:47:29.122Z,100125.25
2022-11-20T04:50:31.300Z,100129.53
2022-11-20T04:53:34.233Z,100123.53
2022-11-20T04:56:36.445Z,100098.75
2022-11-20T04:59:38.927Z,100091.87
2022-11-20T05:02:41.229Z,100097.00
2022-11-20T05:05:43.801Z,100093.63
2022-11-20T05:08:46.318Z,100095.34
2022-11-20T05:11:51.504Z,100097.87
2022-11-20T05:14:54.050Z,100097.84
2022-11-20T05:17:59.562Z,100115.00
2022-11-20T05:21:02.162Z,100108.97
2022-11-20T05:24:05.534Z,100092.72
2022-11-20T05:27:07.767Z,100102.13
2022-11-20T05:30:10.615Z,100080.78
2022-11-20T05:33:12.878Z,100066.22
2022-11-20T05:36:16.021Z,100061.97
2022-11-20T05:39:18.587Z,100063.69
2022-11-20T05:42:33.581Z,100062.81
2022-11-20T05:45:36.224Z,100068.81
2022-11-20T05:48:39.255Z,100072.22
2022-11-20T05:51:41.485Z,100073.94
2022-11-20T05:54:44.872Z,100085.88
2022-11-20T05:57:47.073Z,100085.88
2022-11-20T06:00:49.549Z,100094.47
2022-11-20T06:03:52.286Z,100105.56
2022-11-20T06:06:54.542Z,100096.16
2022-11-20T06:09:57.075Z,100093.56
2022-11-20T06:12:59.690Z,100104.69
2022-11-20T06:16:02.675Z,100097.81
2022-11-20T06:19:04.904Z,100108.09
2022-11-20T06:22:07.365Z,100097.00
2022-11-20T06:25:09.537Z,100096.12
2022-11-20T06:28:12.054Z,100078.19
2022-11-20T06:31:15.329Z,100086.72
2022-11-20T06:34:17.871Z,100103.78
2022-11-20T06:37:20.183Z,100111.44
2022-11-20T06:40:22.704Z,100121.69
2022-11-20T06:43:26.014Z,100124.25
2022-11-20T06:46:28.602Z,100126.78
2022-11-20T06:49:30.859Z,100137.09
2022-11-20T06:52:33.985Z,100145.59
2022-11-20T06:55:36.258Z,100130.12
2022-11-20T06:58:39.146Z,100136.13
2022-11-20T07:01:41.586Z,100132.69
2022-11-20T07:04:44.033Z,100124.94
2022-11-20T07:07:46.222Z,100124.06
2022-11-20T07:10:57.865Z,100118.84
2022-11-20T07:14:00.406Z,100120.56
2022-11-20T07:17:02.958Z,100117.91
2022-11-20T07:20:05.320Z,100129.03
2022-11-20T07:23:07.918Z,100124.69
2022-11-20T07:26:11.215Z,100139.25
2022-11-20T07:29:13.675Z,100152.06
2022-11-20T07:32:16.066Z,100152.81
2022-11-20T07:35:18.746Z,100149.37
2022-11-20T07:38:21.123Z,100158.91
2022-11-20T07:41:23.694Z,100159.72
2022-11-20T07:44:25.939Z,100151.97
2022-11-20T07:47:28.481Z,100148.56
2022-11-20T07:50:30.961Z,100149.37
2022-11-20T07:53:33.629Z,100150.28
2022-11-20T07:56:35.861Z,100157.06
2022-11-20T07:59:39.839Z,100152.75
2022-11-20T08:02:42.435Z,100154.38
2022-11-20T08:05:44.949Z,100156.09
2022-11-20T08:08:47.216Z,100145.72
2022-11-20T08:12:08.407Z,100134.53
2022-11-20T08:15:13.365Z,100133.56
2022-11-20T08:18:30.767Z,100126.62
2022-11-20T08:21:38.136Z,100137.78
2022-11-20T08:24:40.949Z,100135.97
2022-11-20T08:27:43.164Z,100147.00
2022-11-20T08:30:46.967Z,100147.91
2022-11-20T08:33:49.463Z,100142.41
2022-11-20T08:36:52.771Z,100126.81
2022-11-20T08:39:57.917Z,100133.66
2022-11-20T08:43:00.422Z,100128.41
2022-11-20T08:46:02.645Z,100146.41
2022-11-20T08:49:05.824Z,100147.28
2022-11-20T08:52:08.107Z,100157.38
2022-11-20T08:55:10.972Z,100156.41
2022-11-20T08:58:13.351Z,100144.47
2022-11-20T09:01:16.341Z,100148.41
2022-11-20T09:04:18.634Z,100156.19
2022-11-20T09:07:39.741Z,100154.66
2022-11-20T09:10:41.972Z,100161.53
2022-11-20T09:13:44.590Z,100160.66
2022-11-20T09:16:47.456Z,100160.78
2022-11-20T09:19:49.931Z,100170.19
2022-11-20T09:22:52.382Z,100176.94
2022-11-20T09:25:56.775Z,100177.84
2022-11-20T09:28:59.099Z,100176.25
2022-11-20T09:32:02.259Z,100183.37
2022-11-20T09:35:04.655Z,100170.31
2022-11-20T09:38:07.446Z,100173.81
2022-11-20T09:41:18.799Z,100162.47
2022-11-20T09:44:27.462Z,100157.25
2022-11-20T09:48:08.483Z,100164.78
2022-11-20T09:51:14.065Z,100147.38
2022-11-20T09:54:24.360Z,100147.34
2022-11-20T09:57:29.901Z,100142.78
2022-11-20T10:00:32.178Z,100148.75
2022-11-20T10:03:46.878Z,100137.31
2022-11-20T10:07:30.868Z,100137.12
2022-11-20T10:10:30.547Z,100126.56
2022-11-20T10:13:35.507Z,100129.69
2022-11-20T10:16:56.686Z,100123.50
2022-11-20T10:20:26.691Z,100117.53
2022-11-20T10:23:29.213Z,100107.50
2022-11-20T10:26:48.907Z,100099.59
2022-11-20T10:30:00.584Z,100096.06
2022-11-20T10:33:07.633Z,100081.13
2022-11-20T10:36:26.722Z,100081.94
2022-11-20T10:39:38.920Z,100082.09
2022-11-20T10:42:41.387Z,100090.75
2022-11-20T10:45:49.887Z,100091.69
2022-11-20T10:48:52.739Z,100084.53
2022-11-20T10:52:13.805Z,100084.25
2022-11-20T10:55:39.716Z,100088.44
2022-11-20T10:59:00.658Z,100086.22
2022-11-20T11:02:15.283Z,100088.25
2022-11-20T11:05:17.552Z,100087.72
2022-11-20T11:08:20.444Z,100090.38
2022-11-20T11:11:28.737Z,100102.84
2022-11-20T11:14:31.210Z,100105.41
2022-11-20T11:17:34.883Z,100113.06
2022-11-20T11:20:50.562Z,100122.28
2022-11-20T11:24:26.762Z,100112.81
2022-11-20T11:27:26.498Z,100104.28
2022-11-20T11:30:31.022Z,100111.78
2022-11-20T11:33:36.924Z,100119.13
2022-11-20T11:36:39.500Z,100123.50
2022-11-20T11:39:43.041Z,100114.66
2022-11-20T11:42:47.703Z,100106.19
2022-11-20T11:45:55.419Z,100094.94
2022-11-20T11:49:10.113Z,100093.50
2022-11-20T11:52:17.851Z,100095.34
2022-11-20T11:55:26.163Z,100081.53
2022-11-20T11:58:56.456Z,100085.50
2022-11-20T12:02:03.981Z,100082.62
2022-11-20T12:05:20.783Z,100072.47
2022-11-20T12:08:38.143Z,100069.78
2022-11-20T12:11:59.986Z,100079.84
2022-11-20T12:15:03.343Z,100069.44
2022-11-20T12:18:14.540Z,100076.25
2022-11-20T12:21:36.410Z,100082.00
2022-11-20T12:24:44.047Z,100088.72
2022-11-20T12:28:13.195Z,100082.53
2022-11-20T12:31:51.446Z,100077.47
2022-11-20T12:35:13.883Z,100071.34
2022-11-20T12:38:22.644Z,100061.13
2022-11-20T12:42:13.262Z,100058.84
2022-11-20T12:45:24.045Z,100058.84
2022-11-20T12:48:26.293Z,100061.84
2022-11-20T12:51:50.555Z,100063.56
2022-11-20T12:55:13.148Z,100069.53
2022-11-20T12:58:21.882Z,100072.16
2022-11-20T13:01:44.554Z,100075.66
2022-11-20T13:04:59.045Z,100075.69
2022-11-20T13:08:03.014Z,100077.50
2022-11-20T13:11:08.631Z,100077.37
2022-11-20T13:14:20.285Z,100084.16
2022-11-20T13:17:35.555Z,100080.75
2022-11-20T13:20:42.187Z,100085.69
2022-11-20T13:23:44.773Z,100086.38
2022-11-20T13:26:47.246Z,100075.41
2022-11-20T13:30:08.347Z,100070.19
2022-11-20T13:33:26.643Z,100068.47
2022-11-20T13:36:29.901Z,100068.41
2022-11-20T13:39:34.377Z,100066.12
2022-11-20T13:42:39.646Z,100065.31
2022-11-20T13:45:42.011Z,100056.12
2022-11-20T13:48:45.776Z,100046.78
2022-11-20T13:51:49.761Z,100037.44
2022-11-20T13:55:02.340Z,100044.47
2022-11-20T13:58:13.711Z,100044.37
2022-11-20T14:01:18.518Z,100043.31
2022-11-20T14:04:26.948Z,100036.72
2022-11-20T14:07:36.057Z,100038.53
2022-11-20T14:10:40.204Z,100048.03
2022-11-20T14:13:53.204Z,100034.38
2022-11-20T14:17:14.624Z,100032.06
2022-11-20T14:20:19.839Z,100027.94
2022-11-20T14:23:30.010Z,100031.34
2022-11-20T14:26:33.298Z,100040.91
2022-11-20T14:29:37.444Z,100040.19
2022-11-20T14:32:39.938Z,100036.09
2022-11-20T14:35:46.804Z,100041.31
2022-11-20T14:38:49.134Z,100043.84
2022-11-20T14:41:54.858Z,100049.03
2022-11-20T14:44:58.389Z,100057.59
2022-11-20T14:48:00.942Z,100061.88
2022-11-20T14:51:03.242Z,100064.63
2022-11-20T14:54:19.038Z,100067.47
2022-11-20T14:57:23.109Z,100060.69
2022-11-20T15:00:26.073Z,100068.56
2022-11-20T15:03:32.157Z,100072.16
2022-11-20T15:06:34.852Z,100070.56
2022-11-20T15:09:37.110Z,100073.09
2022-11-20T15:12:41.410Z,100076.66
2022-11-20T15:15:50.926Z,100074.22
2022-11-20T15:18:53.635Z,100087.25
2022-11-20T15:21:56.069Z,100087.41
2022-11-20T15:24:58.509Z,100078.91
2022-11-20T15:28:00.753Z,100077.97
2022-11-20T15:31:04.359Z,100081.53
2022-11-20T15:34:08.496Z,100082.59
2022-11-20T15:37:11.033Z,100082.59
2022-11-20T15:40:13.399Z,100083.47
2022-11-20T15:43:15.889Z,100080.97
2022-11-20T15:46:22.850Z,100080.97
2022-11-20T15:49:26.462Z,100089.44
2022-11-20T15:52:36.348Z,100093.75
2022-11-20T15:55:44.326Z,100098.09
2022-11-20T15:58:46.597Z,100092.22
2022-11-20T16:01:49.155Z,100089.62
2022-11-20T16:04:51.678Z,100090.38
2022-11-20T16:07:54.158Z,100094.84
2022-11-20T16:10:56.781Z,100094.66
2022-11-20T16:14:17.747Z,100087.66
2022-11-20T16:17:40.158Z,100090.22
2022-11-20T16:20:42.736Z,100087.78
2022-11-20T16:23:45.317Z,100078.19
2022-11-20T16:26:47.549Z,100078.19
2022-11-20T16:29:50.087Z,100073.12
2022-11-20T16:32:52.353Z,100078.34
2022-11-20T16:35:54.832Z,100080.03
2022-11-20T16:38:58.221Z,100081.84
2022-11-20T16:42:04.423Z,100080.16
2022-11-20T16:45:06.805Z,100076.75
2022-11-20T16:48:12.284Z,100079.47
2022-11-20T16:51:14.513Z,100075.19
2022-11-20T16:54:20.826Z,100059.72
2022-11-20T16:57:24.007Z,100064.94
2022-11-20T17:00:27.086Z,100070.28
2022-11-20T17:03:29.297Z,100063.56
2022-11-20T17:06:33.289Z,100060.22
2022-11-20T17:09:35.524Z,100059.44
2022-11-20T17:12:38.003Z,100057.72
2022-11-20T17:15:40.398Z,100056.09
2022-11-20T17:18:44.207Z,100046.81
2022-11-20T17:21:46.642Z,100046.91
2022-11-20T17:24:49.091Z,100034.97
2022-11-20T17:27:51.374Z,100032.50
2022-11-20T17:30:53.843Z,100028.31
2022-11-20T17:33:56.137Z,100033.50
2022-11-20T17:36:58.702Z,100035.28
2022-11-20T17:40:00.995Z,100040.47
2022-11-20T17:43:03.584Z,100039.59
2022-11-20T17:46:09.999Z,100034.53
2022-11-20T17:49:12.897Z,100021.75
2022-11-20T17:52:15.100Z,100012.38
2022-11-20T17:55:17.769Z,100009.81
2022-11-20T17:58:20.086Z,100008.88
2022-11-20T18:01:22.800Z,100016.66
2022-11-20T18:04:26.020Z,100022.66
2022-11-20T18:07:28.706Z,100019.28
2022-11-20T18:10:31.410Z,100018.47
2022-11-20T18:13:53.695Z,100019.28
2022-11-20T18:16:57.492Z,100024.44
2022-11-20T18:23:22.342Z,100035.56
2022-11-20T18:26:25.361Z,100040.72
2022-11-20T18:29:28.372Z,100056.94
2022-11-20T18:32:30.692Z,100047.53
2022-11-20T18:35:33.372Z,100054.41
2022-11-20T18:38:35.828Z,100061.25
2022-11-20T18:41:57.920Z,100067.22
2022-11-20T18:45:01.370Z,100074.94
2022-11-20T18:48:03.951Z,100073.25
2022-11-20T18:51:06.815Z,100079.22
2022-11-20T18:54:09.531Z,100086.91
2022-11-20T18:57:14.802Z,100086.03
2022-11-20T19:00:17.912Z,100092.88
2022-11-20T19:03:20.305Z,100087.75
2022-11-20T19:06:23.636Z,100082.62
2022-11-20T19:09:26.079Z,100083.50
2022-11-20T19:12:28.731Z,100082.62
2022-11-20T19:15:32.730Z,100086.06
2022-11-20T19:18:35.678Z,100080.91
2022-11-20T19:21:38.183Z,100087.75
2022-11-20T19:24:41.501Z,100087.75
2022-11-20T19:27:43.639Z,100091.16
2022-11-20T19:30:46.271Z,100095.44
2022-11-20T19:33:52.410Z,100096.31
2022-11-20T19:36:55.058Z,100088.59
2022-11-20T19:39:59.590Z,100074.94
2022-11-20T19:43:02.122Z,100063.87
2022-11-20T19:46:04.429Z,100057.87
2022-11-20T19:49:10.148Z,100063.84
2022-11-20T19:52:12.927Z,100068.97
2022-11-20T19:55:15.518Z,100064.72
2022-11-20T19:58:17.905Z,100063.87
2022-11-20T20:01:21.976Z,100056.19
2022-11-20T20:04:24.674Z,100059.59
2022-11-20T20:07:26.928Z,100058.75
2022-11-20T20:10:29.507Z,100061.31
2022-11-20T20:13:31.728Z,100050.19
2022-11-20T20:16:35.297Z,100047.63
2022-11-20T20:19:37.722Z,100041.69
2022-11-20T20:22:40.218Z,100032.28
2022-11-20T20:25:47.509Z,100028.91
2022-11-20T20:28:50.320Z,100015.22
2022-11-20T20:31:52.506Z,100027.16
2022-11-20T20:34:55.021Z,100033.16
2022-11-20T20:37:57.396Z,100033.16
2022-11-20T20:41:00.370Z,100022.06
2022-11-20T20:44:21.341Z,100017.75
2022-11-20T20:47:23.901Z,100026.31
2022-11-20T20:50:26.117Z,100035.69
2022-11-20T20:53:30.341Z,100031.44
2022-11-20T20:56:32.792Z,100028.03
2022-11-20T20:59:35.373Z,100028.03
2022-11-20T21:02:37.608Z,100035.69
2022-11-20T21:05:40.236Z,100038.28
2022-11-20T21:08:44.446Z,100024.63
2022-11-20T21:11:47.336Z,100016.09
2022-11-20T21:14:49.671Z,100019.50
2022-11-20T21:17:52.184Z,100022.91
2022-11-20T21:21:13.375Z,100034.00
2022-11-20T21:24:15.872Z,100039.12
2022-11-20T21:27:18.173Z,100033.13
2022-11-20T21:30:20.695Z,100028.88
2022-11-20T21:33:22.921Z,100028.03
2022-11-20T21:36:26.904Z,100031.44
2022-11-20T21:39:30.448Z,100031.47
2022-11-20T21:42:33.024Z,100033.16
2022-11-20T21:45:35.277Z,100028.88
2022-11-20T21:48:39.899Z,100039.12
2022-11-20T21:51:42.243Z,100038.25
2022-11-20T21:54:44.740Z,100045.09
2022-11-20T21:57:46.976Z,100041.69
2022-11-20T22:00:49.498Z,100022.94
2022-11-20T22:03:53.316Z,100023.78
2022-11-20T22:06:55.514Z,100031.44
2022-11-20T22:09:58.010Z,100024.63
2022-11-20T22:13:19.151Z,100033.16
2022-11-20T22:16:22.177Z,100022.91
2022-11-20T22:19:24.510Z,100025.47
2022-11-20T22:22:26.986Z,100022.91
2022-11-20T22:25:29.230Z,100022.91
2022-11-20T22:28:32.202Z,100016.94
2022-11-20T22:31:34.617Z,100009.25
2022-11-20T22:34:37.822Z,100006.72
2022-11-20T22:37:39.976Z,100000.75
2022-11-20T22:40:44.256Z,99997.31
2022-11-20T22:43:46.781Z,99981.13
2022-11-20T22:46:49.305Z,99985.37
2022-11-20T22:49:51.509Z,99988.78
2022-11-20T22:52:53.990Z,99978.53
2022-11-20T22:55:56.349Z,99977.69
2022-11-20T22:58:59.085Z,99979.41
2022-11-20T23:02:01.405Z,99971.72
2022-11-20T23:05:04.268Z,99979.38
2022-11-20T23:08:06.535Z,99971.72
2022-11-20T23:11:11.061Z,99970.84
2022-11-20T23:14:14.427Z,99965.75
2022-11-20T23:17:16.878Z,99958.91
2022-11-20T23:20:19.302Z,99956.34
2022-11-20T23:23:21.825Z,99947.00
2022-11-20T23:26:25.754Z,99943.59
2022-11-20T23:29:28.886Z,99956.37
2022-11-20T23:32:31.149Z,99952.94
2022-11-20T23:35:37.903Z,99964.00
2022-11-20T23:38:40.303Z,99965.69
2022-11-20T23:41:43.093Z,99966.53
2022-11-20T23:44:45.249Z,99963.97
2022-11-20T23:47:47.740Z,99958.00
2022-11-20T23:50:50.345Z,99962.25
2022-11-20T23:53:52.946Z,99958.84
2022-11-20T23:56:55.107Z,99950.28
2022-11-20T23:59:57.637Z,99949.47
